^^
Daily Summary for April 10, 2022 Units:  Metric    English   Both
Daily Weekly Monthly Yearly Custom
  High: Low: Average:
Temperature: 20.6 °C 4.4 °C 11.6 °C
Dew Point: 2.8 °C -4.4 °C -1.4 °C
Humidity: 71% 20% 44%
Wind Speed: 25.7km/h 0km/h 5km/h
Wind Gust: 25.7km/h - -
Wind- - West
Pressure: 1015.8 hPa 1015.8 hPa -
Precipitation: 0 mm    
Historical Graphs
 
 
Tabular Data for April 10, 2022
Time Temperature Dew Point Pressure Wind Wind Speed Wind Gust Humidity Rainfall Rate (Hourly) solar
00:04 7.8 °C -2.2 °C 1015.8 hPa Calm     49% 0 mm 0.00 W/m2
00:09 7.2 °C -2.2 °C 1015.8 hPa Calm     51% 0 mm 0.00 W/m2
00:14 7.2 °C -1.7 °C 1015.8 hPa Calm     52% 0 mm 0.00 W/m2
00:19 7.2 °C -1.7 °C 1015.8 hPa Calm     52% 0 mm 0.00 W/m2
00:24 7.2 °C -2.2 °C 1015.8 hPa Calm     52% 0 mm 0.00 W/m2
00:29 7.2 °C -2.2 °C 1015.8 hPa Calm     52% 0 mm 0.00 W/m2
00:34 7.2 °C -1.1 °C 1015.8 hPa Calm     56% 0 mm 0.00 W/m2
00:39 7.2 °C -1.1 °C 1015.8 hPa Calm     55% 0 mm 0.00 W/m2
00:44 7.2 °C -1.7 °C 1015.8 hPa Calm     53% 0 mm 0.00 W/m2
00:49 7.2 °C -1.7 °C 1015.8 hPa Calm     54% 0 mm 0.00 W/m2
00:54 7.2 °C -1.1 °C 1015.8 hPa Calm     55% 0 mm 0.00 W/m2
00:59 7.2 °C -1.1 °C 1015.8 hPa Calm     55% 0 mm 0.00 W/m2
01:04 7.2 °C -1.1 °C 1015.8 hPa Calm     56% 0 mm 0.00 W/m2
01:09 7.2 °C -1.1 °C 1015.8 hPa Calm     56% 0 mm 0.00 W/m2
01:14 7.2 °C -1.1 °C 1015.8 hPa Calm     56% 0 mm 0.00 W/m2
01:19 7.2 °C -1.1 °C 1015.8 hPa Calm     57% 0 mm 0.00 W/m2
01:24 7.2 °C -1.1 °C 1015.8 hPa Calm     58% 0 mm 0.00 W/m2
01:29 6.7 °C -0.6 °C 1015.8 hPa Calm     59% 0 mm 0.00 W/m2
01:34 6.7 °C -0.6 °C 1015.8 hPa Calm     60% 0 mm 0.00 W/m2
01:39 6.7 °C -0.6 °C 1015.8 hPa Calm     60% 0 mm 0.00 W/m2
01:44 6.7 °C -0.6 °C 1015.8 hPa Calm     60% 0 mm 0.00 W/m2
01:49 6.7 °C -0.6 °C 1015.8 hPa Calm     59% 0 mm 0.00 W/m2
01:54 6.7 °C 0 °C 1015.8 hPa Calm     61% 0 mm 0.00 W/m2
01:59 6.7 °C -0.6 °C 1015.8 hPa Calm     61% 0 mm 0.00 W/m2
02:04 6.7 °C -0.6 °C 1015.8 hPa Calm     61% 0 mm 0.00 W/m2
02:09 6.7 °C -0.6 °C 1015.8 hPa Calm     61% 0 mm 0.00 W/m2
02:14 6.7 °C -0.6 °C 1015.8 hPa Calm     61% 0 mm 0.00 W/m2
02:19 6.7 °C -0.6 °C 1015.8 hPa Calm     61% 0 mm 0.00 W/m2
02:24 6.7 °C -0.6 °C 1015.8 hPa Calm     60% 0 mm 0.00 W/m2
02:29 6.7 °C -0.6 °C 1015.8 hPa Calm     60% 0 mm 0.00 W/m2
02:34 6.7 °C -0.6 °C 1015.8 hPa Calm     60% 0 mm 0.00 W/m2
02:39 6.7 °C -0.6 °C 1015.8 hPa Calm     60% 0 mm 0.00 W/m2
02:44 6.7 °C -0.6 °C 1015.8 hPa Calm     61% 0 mm 0.00 W/m2
02:49 6.7 °C -0.6 °C 1015.8 hPa Calm     61% 0 mm 0.00 W/m2
02:54 6.1 °C -0.6 °C 1015.8 hPa Calm     61% 0 mm 0.00 W/m2
02:59 6.1 °C -1.1 °C 1015.8 hPa Calm     59% 0 mm 0.00 W/m2
03:04 6.1 °C -1.1 °C 1015.8 hPa Calm     59% 0 mm 0.00 W/m2
03:09 6.1 °C -1.1 °C 1015.8 hPa Calm     58% 0 mm 0.00 W/m2
03:14 6.1 °C -1.1 °C 1015.8 hPa Calm     58% 0 mm 0.00 W/m2
03:19 6.1 °C -1.1 °C 1015.8 hPa Calm     58% 0 mm 0.00 W/m2
03:24 6.1 °C -1.7 °C 1015.8 hPa Calm     57% 0 mm 0.00 W/m2
03:29 6.1 °C -1.7 °C 1015.8 hPa Calm     57% 0 mm 0.00 W/m2
03:34 6.1 °C -1.7 °C 1015.8 hPa Calm     57% 0 mm 0.00 W/m2
03:39 6.1 °C -1.7 °C 1015.8 hPa Calm     57% 0 mm 0.00 W/m2
03:44 6.1 °C -1.1 °C 1015.8 hPa Calm     59% 0 mm 0.00 W/m2
03:49 6.1 °C -1.1 °C 1015.8 hPa Calm     59% 0 mm 0.00 W/m2
03:54 6.1 °C -1.1 °C 1015.8 hPa Calm     59% 0 mm 0.00 W/m2
03:58 6.1 °C -1.7 °C 1015.8 hPa Calm     58% 0 mm 0.00 W/m2
04:04 6.1 °C -1.7 °C 1015.8 hPa Calm     58% 0 mm 0.00 W/m2
04:09 5.6 °C -1.7 °C 1015.8 hPa Calm     59% 0 mm 0.00 W/m2
04:14 5.6 °C -1.7 °C 1015.8 hPa Calm     59% 0 mm 0.00 W/m2
04:19 5.6 °C -1.7 °C 1015.8 hPa Calm     60% 0 mm 0.00 W/m2
04:24 5.6 °C -1.7 °C 1015.8 hPa Calm     60% 0 mm 0.00 W/m2
04:29 5.6 °C -1.7 °C 1015.8 hPa Calm     59% 0 mm 0.00 W/m2
04:34 5.6 °C -1.7 °C 1015.8 hPa Calm     60% 0 mm 0.00 W/m2
04:39 5.6 °C -1.1 °C 1015.8 hPa Calm     61% 0 mm 0.00 W/m2
04:44 5.6 °C -1.1 °C 1015.8 hPa Calm     62% 0 mm 0.00 W/m2
04:49 5.6 °C -1.1 °C 1015.8 hPa Calm     62% 0 mm 0.00 W/m2
04:54 5.6 °C -1.7 °C 1015.8 hPa Calm     60% 0 mm 0.00 W/m2
04:59 5.6 °C -1.7 °C 1015.8 hPa Calm     60% 0 mm 0.00 W/m2
05:04 5.6 °C -1.7 °C 1015.8 hPa Calm     60% 0 mm 0.00 W/m2
05:09 5.6 °C -1.7 °C 1015.8 hPa Calm     60% 0 mm 0.00 W/m2
05:14 5.6 °C -1.7 °C 1015.8 hPa Calm     60% 0 mm 0.00 W/m2
05:19 5 °C -1.7 °C 1015.8 hPa Calm     60% 0 mm 0.00 W/m2
05:24 5 °C -2.2 °C 1015.8 hPa Calm     59% 0 mm 0.00 W/m2
05:29 5 °C -2.2 °C 1015.8 hPa Calm     59% 0 mm 0.00 W/m2
05:34 5 °C -2.2 °C 1015.8 hPa Calm     58% 0 mm 0.00 W/m2
05:39 5 °C -2.2 °C 1015.8 hPa Calm     58% 0 mm 0.00 W/m2
05:44 5 °C -2.8 °C 1015.8 hPa Calm     56% 0 mm 0.00 W/m2
05:49 5 °C -2.8 °C 1015.8 hPa Calm     56% 0 mm 0.00 W/m2
05:54 5 °C -3.3 °C 1015.8 hPa Calm     56% 0 mm 0.00 W/m2
05:59 5 °C -2.8 °C 1015.8 hPa Calm     58% 0 mm 0.00 W/m2
06:04 5 °C -2.2 °C 1015.8 hPa Calm     59% 0 mm 0.00 W/m2
06:09 5 °C -2.8 °C 1015.8 hPa Calm     58% 0 mm 0.00 W/m2
06:13 5 °C -2.2 °C 1015.8 hPa Calm     59% 0 mm 0.00 W/m2
06:18 5 °C -2.8 °C 1015.8 hPa Calm     58% 0 mm 0.00 W/m2
06:24 4.4 °C -2.2 °C 1015.8 hPa Calm     60% 0 mm 0.00 W/m2
06:29 4.4 °C -2.2 °C 1015.8 hPa Calm     60% 0 mm 0.00 W/m2
06:34 4.4 °C -2.2 °C 1015.8 hPa Calm     61% 0 mm 0.00 W/m2
06:39 4.4 °C -2.2 °C 1015.8 hPa Calm     61% 0 mm 0.00 W/m2
06:44 4.4 °C -2.2 °C 1015.8 hPa Calm     61% 0 mm 7.00 W/m2
06:49 4.4 °C -2.8 °C 1015.8 hPa Calm     60% 0 mm 11.00 W/m2
06:54 4.4 °C -2.2 °C 1015.8 hPa Calm     61% 0 mm 14.00 W/m2
06:59 4.4 °C -2.8 °C 1015.8 hPa Calm     61% 0 mm 18.00 W/m2
07:04 4.4 °C -2.8 °C 1015.8 hPa Calm     61% 0 mm 25.00 W/m2
07:09 4.4 °C -2.8 °C 1015.8 hPa Calm     61% 0 mm 26.00 W/m2
07:14 4.4 °C -2.2 °C 1015.8 hPa Calm     62% 0 mm 28.00 W/m2
07:19 4.4 °C -2.2 °C 1015.8 hPa Calm     63% 0 mm 35.00 W/m2
07:24 4.4 °C -1.7 °C 1015.8 hPa Calm     65% 0 mm 35.00 W/m2
07:29 4.4 °C -2.2 °C 1015.8 hPa Calm     64% 0 mm 39.00 W/m2
07:34 4.4 °C -2.2 °C 1015.8 hPa Calm     64% 0 mm 40.00 W/m2
07:39 4.4 °C -1.7 °C 1015.8 hPa Calm     64% 0 mm 46.00 W/m2
07:44 4.4 °C -1.7 °C 1015.8 hPa Calm     65% 0 mm 51.00 W/m2
07:49 4.4 °C -1.1 °C 1015.8 hPa Calm     66% 0 mm 56.00 W/m2
07:54 4.4 °C -1.1 °C 1015.8 hPa Calm     66% 0 mm 62.00 W/m2
07:58 4.4 °C -1.1 °C 1015.8 hPa Calm     66% 0 mm 67.00 W/m2
08:04 5 °C -0.6 °C 1015.8 hPa Calm     68% 0 mm 77.00 W/m2
08:09 5 °C 0 °C 1015.8 hPa Calm     69% 0 mm 77.00 W/m2
08:14 5 °C 0 °C 1015.8 hPa Calm     70% 0 mm 79.00 W/m2
08:19 5 °C 0 °C 1015.8 hPa Calm     70% 0 mm 114.00 W/m2
08:24 5.6 °C 0.6 °C 1015.8 hPa Calm     71% 0 mm 104.00 W/m2
08:29 5.6 °C 0.6 °C 1015.8 hPa Calm     71% 0 mm 176.00 W/m2
08:34 6.1 °C 0.6 °C 1015.8 hPa Calm     70% 0 mm 213.00 W/m2
08:39 6.1 °C 1.1 °C 1015.8 hPa Calm     70% 0 mm 207.00 W/m2
08:44 6.7 °C 0.6 °C 1015.8 hPa Calm     69% 0 mm 158.00 W/m2
08:49 6.7 °C 0.6 °C 1015.8 hPa Calm     66% 0 mm 462.00 W/m2
08:54 7.2 °C 0.6 °C 1015.8 hPa NNW 3.2 km/h 1.6 km/h 64% 0 mm 489.00 W/m2
08:59 7.8 °C -0.6 °C 1015.8 hPa WNW 14.5 km/h 8 km/h 59% 0 mm 506.00 W/m2
09:04 8.3 °C -0.6 °C 1015.8 hPa WNW 3.2 km/h 14.5 km/h 55% 0 mm 429.00 W/m2
09:09 8.9 °C -0.6 °C 1015.8 hPa WNW 8 km/h 3.2 km/h 53% 0 mm 448.00 W/m2
09:14 8.9 °C -1.7 °C 1015.8 hPa WNW 9.7 km/h 9.7 km/h 49% 0 mm 485.00 W/m2
09:19 9.4 °C -1.7 °C 1015.8 hPa NW 9.7 km/h 9.7 km/h 46% 0 mm 571.00 W/m2
09:24 10 °C -2.2 °C 1015.8 hPa WNW 9.7 km/h 9.7 km/h 44% 0 mm 601.00 W/m2
09:29 10 °C -2.2 °C 1015.8 hPa NW 9.7 km/h 9.7 km/h 43% 0 mm 596.00 W/m2
09:34 10.6 °C -2.2 °C 1015.8 hPa North 11.3 km/h 9.7 km/h 41% 0 mm 557.00 W/m2
09:39 10.6 °C -2.2 °C 1015.8 hPa NNW 8 km/h 11.3 km/h 41% 0 mm 434.00 W/m2
09:44 10.6 °C -2.2 °C 1015.8 hPa WNW 6.4 km/h 4.8 km/h 40% 0 mm 570.00 W/m2
09:49 11.1 °C -2.2 °C 1015.8 hPa WNW 3.2 km/h 1.6 km/h 41% 0 mm 594.00 W/m2
09:54 11.1 °C -2.2 °C 1015.8 hPa WNW 3.2 km/h 3.2 km/h 40% 0 mm 635.00 W/m2
09:59 11.1 °C -2.2 °C 1015.8 hPa WNW 11.3 km/h 4.8 km/h 40% 0 mm 601.00 W/m2
10:04 11.7 °C -2.8 °C 1015.8 hPa NW 9.7 km/h 11.3 km/h 38% 0 mm 680.00 W/m2
10:09 11.7 °C -2.8 °C 1015.8 hPa NNW 11.3 km/h 9.7 km/h 37% 0 mm 698.00 W/m2
10:14 12.2 °C -3.3 °C 1015.8 hPa WNW 11.3 km/h 11.3 km/h 35% 0 mm 700.00 W/m2
10:19 12.2 °C -2.8 °C 1015.8 hPa NW 9.7 km/h 11.3 km/h 35% 0 mm 722.00 W/m2
10:24 12.2 °C -2.8 °C 1015.8 hPa NNW 9.7 km/h 9.7 km/h 35% 0 mm 691.00 W/m2
10:29 12.8 °C -2.2 °C 1015.8 hPa NNW 11.3 km/h 12.9 km/h 35% 0 mm 715.00 W/m2
10:34 12.8 °C -2.2 °C 1015.8 hPa NW 11.3 km/h 11.3 km/h 35% 0 mm 717.00 W/m2
10:39 13.3 °C -1.7 °C 1015.8 hPa WNW 11.3 km/h 11.3 km/h 36% 0 mm 712.00 W/m2
10:44 13.3 °C -1.7 °C 1015.8 hPa NNW 11.3 km/h 6.4 km/h 36% 0 mm 708.00 W/m2
10:49 13.3 °C -2.8 °C 1015.8 hPa NW 14.5 km/h 11.3 km/h 32% 0 mm 722.00 W/m2
10:54 13.3 °C -3.3 °C 1015.8 hPa NW 11.3 km/h 9.7 km/h 31% 0 mm 714.00 W/m2
10:59 13.3 °C -3.9 °C 1015.8 hPa NW 20.9 km/h 19.3 km/h 30% 0 mm 707.00 W/m2
11:04 13.9 °C -3.3 °C 1015.8 hPa NW 14.5 km/h 20.9 km/h 31% 0 mm 615.00 W/m2
11:09 13.9 °C -2.8 °C 1015.8 hPa NNW 6.4 km/h 14.5 km/h 32% 0 mm 615.00 W/m2
11:14 13.9 °C -2.2 °C 1015.8 hPa SW 9.7 km/h 4.8 km/h 33% 0 mm 752.00 W/m2
11:19 13.9 °C -2.2 °C 1015.8 hPa NW 11.3 km/h 12.9 km/h 32% 0 mm 751.00 W/m2
11:24 14.4 °C -2.2 °C 1015.8 hPa NNW 9.7 km/h 11.3 km/h 32% 0 mm 738.00 W/m2
11:29 14.4 °C -2.2 °C 1015.8 hPa NNE 11.3 km/h 9.7 km/h 31% 0 mm 712.00 W/m2
11:34 15 °C -2.2 °C 1015.8 hPa NE 8 km/h 11.3 km/h 31% 0 mm 782.00 W/m2
11:39 15 °C -2.2 °C 1015.8 hPa North 9.7 km/h 9.7 km/h 31% 0 mm 796.00 W/m2
11:44 15 °C -2.2 °C 1015.8 hPa North 11.3 km/h 6.4 km/h 30% 0 mm 798.00 W/m2
11:49 15.6 °C -2.8 °C 1015.8 hPa NNW 17.7 km/h 11.3 km/h 29% 0 mm 900.00 W/m2
11:54 15.6 °C -2.8 °C 1015.8 hPa NNW 19.3 km/h 16.1 km/h 28% 0 mm 907.00 W/m2
11:59 15.6 °C -3.9 °C 1015.8 hPa NW 20.9 km/h 20.9 km/h 26% 0 mm 907.00 W/m2
12:04 15.6 °C -2.8 °C 1015.8 hPa NNW 11.3 km/h 9.7 km/h 28% 0 mm 907.00 W/m2
12:09 16.1 °C -2.2 °C 1015.8 hPa North 17.7 km/h 16.1 km/h 29% 0 mm 926.00 W/m2
12:14 16.1 °C -2.8 °C 1015.8 hPa NNW 14.5 km/h 16.1 km/h 28% 0 mm 853.00 W/m2
12:19 16.1 °C -2.8 °C 1015.8 hPa NW 11.3 km/h 9.7 km/h 28% 0 mm 821.00 W/m2
12:24 16.1 °C -2.2 °C 1015.8 hPa NW 14.5 km/h 11.3 km/h 28% 0 mm 851.00 W/m2
12:29 16.1 °C -2.2 °C 1015.8 hPa North 9.7 km/h 14.5 km/h 28% 0 mm 821.00 W/m2
12:34 16.1 °C -2.2 °C 1015.8 hPa WNW 17.7 km/h 14.5 km/h 28% 0 mm 775.00 W/m2
12:39 16.1 °C -3.3 °C 1015.8 hPa West 14.5 km/h 16.1 km/h 26% 0 mm 821.00 W/m2
12:44 16.7 °C -3.9 °C 1015.8 hPa WNW 6.4 km/h 14.5 km/h 25% 0 mm 802.00 W/m2
12:49 16.7 °C -2.2 °C 1015.8 hPa WSW 6.4 km/h 4.8 km/h 28% 0 mm 791.00 W/m2
12:54 16.7 °C -2.8 °C 1015.8 hPa NNW 9.7 km/h 6.4 km/h 26% 0 mm 956.00 W/m2
12:59 17.2 °C -2.2 °C 1015.8 hPa WNW 17.7 km/h 12.9 km/h 27% 0 mm 940.00 W/m2
13:04 17.2 °C -3.3 °C 1015.8 hPa NW 11.3 km/h 16.1 km/h 25% 0 mm 940.00 W/m2
13:09 17.2 °C -2.2 °C 1015.8 hPa NW 17.7 km/h 11.3 km/h 26% 0 mm 752.00 W/m2
13:14 17.2 °C -2.8 °C 1015.8 hPa NW 11.3 km/h 16.1 km/h 25% 0 mm 823.00 W/m2
13:19 17.8 °C -3.3 °C 1015.8 hPa North 25.7 km/h 17.7 km/h 24% 0 mm 867.00 W/m2
13:24 17.8 °C -3.3 °C 1015.8 hPa NNW 25.7 km/h 25.7 km/h 24% 0 mm 780.00 W/m2
13:29 17.8 °C -3.9 °C 1015.8 hPa NNW 11.3 km/h 8 km/h 23% 0 mm 752.00 W/m2
13:34 17.8 °C -4.4 °C 1015.8 hPa NE 17.7 km/h 14.5 km/h 22% 0 mm 752.00 W/m2
13:39 17.8 °C -3.3 °C 1015.8 hPa WNW 16.1 km/h 16.1 km/h 23% 0 mm 831.00 W/m2
13:44 17.8 °C -2.8 °C 1015.8 hPa NNW 11.3 km/h 11.3 km/h 24% 0 mm 802.00 W/m2
13:49 17.8 °C -2.8 °C 1015.8 hPa NNW 11.3 km/h 11.3 km/h 24% 0 mm 812.00 W/m2
13:54 17.8 °C -2.8 °C 1015.8 hPa NNW 11.3 km/h 11.3 km/h 24% 0 mm 868.00 W/m2
13:59 18.3 °C -2.2 °C 1015.8 hPa SW 14.5 km/h 9.7 km/h 25% 0 mm 868.00 W/m2
14:04 18.3 °C -1.7 °C 1015.8 hPa SSW 3.2 km/h 14.5 km/h 26% 0 mm 807.00 W/m2
14:09 18.3 °C -2.2 °C 1015.8 hPa NW 17.7 km/h 12.9 km/h 25% 0 mm 828.00 W/m2
14:14 18.3 °C -2.8 °C 1015.8 hPa NNW 20.9 km/h 20.9 km/h 24% 0 mm 789.00 W/m2
14:19 18.9 °C -2.8 °C 1015.8 hPa WNW 16.1 km/h 20.9 km/h 23% 0 mm 870.00 W/m2
14:24 18.9 °C -1.7 °C 1015.8 hPa North 9.7 km/h 9.7 km/h 25% 0 mm 904.00 W/m2
14:34 18.9 °C -2.8 °C 1015.8 hPa West 11.3 km/h 11.3 km/h 23% 0 mm 738.00 W/m2
14:39 19.4 °C -1.7 °C 1015.8 hPa NW 9.7 km/h 9.7 km/h 24% 0 mm 777.00 W/m2
14:44 19.4 °C -1.1 °C 1015.8 hPa WSW 9.7 km/h 9.7 km/h 25% 0 mm 745.00 W/m2
14:49 19.4 °C -2.2 °C 1015.8 hPa NNW 11.3 km/h 9.7 km/h 23% 0 mm 700.00 W/m2
14:54 19.4 °C -2.2 °C 1015.8 hPa NNW 14.5 km/h 14.5 km/h 23% 0 mm 726.00 W/m2
14:59 19.4 °C -1.7 °C 1015.8 hPa NNW 22.5 km/h 22.5 km/h 24% 0 mm 742.00 W/m2
15:04 18.9 °C -2.8 °C 1015.8 hPa NW 16.1 km/h 16.1 km/h 23% 0 mm 691.00 W/m2
15:09 19.4 °C -1.7 °C 1015.8 hPa NW 11.3 km/h 8 km/h 24% 0 mm 701.00 W/m2
15:14 19.4 °C -1.1 °C 1015.8 hPa SW 9.7 km/h 11.3 km/h 25% 0 mm 744.00 W/m2
15:19 20 °C -1.1 °C 1015.8 hPa North 14.5 km/h 9.7 km/h 25% 0 mm 719.00 W/m2
15:24 20 °C -2.8 °C 1015.8 hPa NW 14.5 km/h 14.5 km/h 22% 0 mm 671.00 W/m2
15:29 20 °C -2.8 °C 1015.8 hPa WNW 11.3 km/h 4.8 km/h 22% 0 mm 671.00 W/m2
15:34 20 °C -1.7 °C 1015.8 hPa WSW 11.3 km/h 11.3 km/h 23% 0 mm 668.00 W/m2
15:39 20 °C -2.2 °C 1015.8 hPa WNW 11.3 km/h 11.3 km/h 22% 0 mm 638.00 W/m2
15:44 20 °C -2.2 °C 1015.8 hPa WSW 9.7 km/h 11.3 km/h 22% 0 mm 638.00 W/m2
15:49 20.6 °C -1.1 °C 1015.8 hPa NNE 11.3 km/h 6.4 km/h 24% 0 mm 606.00 W/m2
15:54 20.6 °C -2.2 °C 1015.8 hPa NNW 25.7 km/h 12.9 km/h 22% 0 mm 584.00 W/m2
15:59 20.6 °C -3.3 °C 1015.8 hPa NW 20.9 km/h 25.7 km/h 20% 0 mm 578.00 W/m2
16:04 20 °C -2.8 °C 1015.8 hPa NW 22.5 km/h 20.9 km/h 21% 0 mm 596.00 W/m2
16:09 20 °C -3.3 °C 1015.8 hPa NNW 14.5 km/h 22.5 km/h 21% 0 mm 573.00 W/m2
16:14 20 °C -1.7 °C 1015.8 hPa NNW 6.4 km/h 4.8 km/h 23% 0 mm 533.00 W/m2
16:19 20 °C -2.2 °C 1015.8 hPa NNW 11.3 km/h 6.4 km/h 22% 0 mm 517.00 W/m2
16:24 20 °C -2.2 °C 1015.8 hPa NNW 11.3 km/h 11.3 km/h 22% 0 mm 531.00 W/m2
16:29 20 °C -2.2 °C 1015.8 hPa NNW 9.7 km/h 11.3 km/h 22% 0 mm 519.00 W/m2
16:34 20 °C -2.2 °C 1015.8 hPa NNW 17.7 km/h 9.7 km/h 22% 0 mm 501.00 W/m2
16:39 20 °C -2.8 °C 1015.8 hPa WNW 16.1 km/h 16.1 km/h 21% 0 mm 489.00 W/m2
16:44 20 °C -2.2 °C 1015.8 hPa West 9.7 km/h 9.7 km/h 22% 0 mm 469.00 W/m2
16:49 20 °C -1.7 °C 1015.8 hPa NW 11.3 km/h 9.7 km/h 23% 0 mm 454.00 W/m2
16:54 20.6 °C -1.7 °C 1015.8 hPa NNW 11.3 km/h 11.3 km/h 23% 0 mm 434.00 W/m2
16:59 20.6 °C -1.7 °C 1015.8 hPa WNW 9.7 km/h 4.8 km/h 23% 0 mm 422.00 W/m2
17:04 20.6 °C -2.2 °C 1015.8 hPa WNW 9.7 km/h 9.7 km/h 22% 0 mm 401.00 W/m2
17:09 20.6 °C -2.8 °C 1015.8 hPa NW 6.4 km/h 9.7 km/h 21% 0 mm 394.00 W/m2
17:14 20.6 °C -2.2 °C 1015.8 hPa NW 3.2 km/h 4.8 km/h 22% 0 mm 385.00 W/m2
17:19 20.6 °C -3.3 °C 1015.8 hPa WNW 3.2 km/h 3.2 km/h 20% 0 mm 369.00 W/m2
17:24 20.6 °C -2.8 °C 1015.8 hPa NW 14.5 km/h 9.7 km/h 21% 0 mm 346.00 W/m2
17:29 20 °C -2.8 °C 1015.8 hPa NW 14.5 km/h 14.5 km/h 21% 0 mm 302.00 W/m2
17:34 20 °C -2.8 °C 1015.8 hPa North 3.2 km/h 9.7 km/h 21% 0 mm 70.00 W/m2
17:39 19.4 °C -3.9 °C 1015.8 hPa NNW 6.4 km/h 3.2 km/h 21% 0 mm 72.00 W/m2
17:44 18.9 °C -3.3 °C 1015.8 hPa NW 6.4 km/h 4.8 km/h 22% 0 mm 95.00 W/m2
17:49 18.9 °C -3.3 °C 1015.8 hPa NW 8 km/h 4.8 km/h 22% 0 mm 51.00 W/m2
17:54 18.3 °C -3.3 °C 1015.8 hPa North 9.7 km/h 9.7 km/h 23% 0 mm 49.00 W/m2
17:59 18.3 °C -3.3 °C 1015.8 hPa NW 14.5 km/h 3.2 km/h 23% 0 mm 51.00 W/m2
18:04 18.3 °C -3.3 °C 1015.8 hPa NNW 6.4 km/h 14.5 km/h 23% 0 mm 54.00 W/m2
18:09 17.8 °C -3.3 °C 1015.8 hPa North 14.5 km/h 6.4 km/h 23% 0 mm 56.00 W/m2
18:14 17.8 °C -2.8 °C 1015.8 hPa NW 3.2 km/h 14.5 km/h 25% 0 mm 51.00 W/m2
18:19 17.8 °C -2.2 °C 1015.8 hPa NNW 3.2 km/h 3.2 km/h 26% 0 mm 46.00 W/m2
18:24 17.2 °C -2.2 °C 1015.8 hPa Calm   3.2 km/h 26% 0 mm 42.00 W/m2
18:29 17.2 °C -1.7 °C 1015.8 hPa NNW 3.2 km/h   28% 0 mm 39.00 W/m2
18:34 17.2 °C -1.7 °C 1015.8 hPa North 6.4 km/h 4.8 km/h 27% 0 mm 35.00 W/m2
18:39 17.2 °C -1.7 °C 1015.8 hPa North 3.2 km/h 3.2 km/h 28% 0 mm 32.00 W/m2
18:44 17.2 °C -1.7 °C 1015.8 hPa North 3.2 km/h 3.2 km/h 28% 0 mm 30.00 W/m2
18:49 17.2 °C -0.6 °C 1015.8 hPa Calm     30% 0 mm 26.00 W/m2
18:54 17.2 °C -1.1 °C 1015.8 hPa Calm     29% 0 mm 25.00 W/m2
18:59 16.7 °C -1.1 °C 1015.8 hPa Calm     30% 0 mm 23.00 W/m2
19:04 16.7 °C -0.6 °C 1015.8 hPa Calm     31% 0 mm 19.00 W/m2
19:09 16.7 °C -1.1 °C 1015.8 hPa Calm     30% 0 mm 18.00 W/m2
19:14 16.7 °C 0 °C 1015.8 hPa Calm     33% 0 mm 14.00 W/m2
19:19 16.1 °C -0.6 °C 1015.8 hPa Calm     32% 0 mm 12.00 W/m2
19:24 16.1 °C 0.6 °C 1015.8 hPa Calm     35% 0 mm 11.00 W/m2
19:29 15.6 °C 0 °C 1015.8 hPa Calm     35% 0 mm 9.00 W/m2
19:34 15.6 °C 0 °C 1015.8 hPa Calm     35% 0 mm 5.00 W/m2
19:39 15 °C 0 °C 1015.8 hPa Calm     36% 0 mm 0.00 W/m2
19:44 15 °C -0.6 °C 1015.8 hPa Calm     35% 0 mm 0.00 W/m2
19:49 14.4 °C -0.6 °C 1015.8 hPa Calm     36% 0 mm 0.00 W/m2
19:54 13.9 °C -0.6 °C 1015.8 hPa Calm     36% 0 mm 0.00 W/m2
19:59 13.9 °C -1.1 °C 1015.8 hPa Calm     37% 0 mm 0.00 W/m2
20:04 13.3 °C -1.1 °C 1015.8 hPa Calm     38% 0 mm 0.00 W/m2
20:09 12.8 °C -0.6 °C 1015.8 hPa Calm     39% 0 mm 0.00 W/m2
20:14 12.8 °C -1.1 °C 1015.8 hPa North 3.2 km/h   39% 0 mm 0.00 W/m2
20:19 12.2 °C -0.6 °C 1015.8 hPa WSW 3.2 km/h 3.2 km/h 41% 0 mm 0.00 W/m2
20:29 12.2 °C 0 °C 1015.8 hPa Calm     43% 0 mm 0.00 W/m2
20:34 12.2 °C 0 °C 1015.8 hPa Calm     44% 0 mm 0.00 W/m2
20:39 12.2 °C 0.6 °C 1015.8 hPa Calm     45% 0 mm 0.00 W/m2
20:44 12.2 °C 0.6 °C 1015.8 hPa Calm     45% 0 mm 0.00 W/m2
20:49 11.7 °C 0.6 °C 1015.8 hPa Calm     46% 0 mm 0.00 W/m2
20:54 11.7 °C 1.1 °C 1015.8 hPa Calm     47% 0 mm 0.00 W/m2
20:59 11.7 °C 1.1 °C 1015.8 hPa Calm     49% 0 mm 0.00 W/m2
21:04 11.7 °C 1.1 °C 1015.8 hPa Calm     50% 0 mm 0.00 W/m2
21:09 11.1 °C 1.7 °C 1015.8 hPa Calm     51% 0 mm 0.00 W/m2
21:14 11.1 °C 1.7 °C 1015.8 hPa Calm     52% 0 mm 0.00 W/m2
21:19 11.1 °C 1.7 °C 1015.8 hPa Calm     52% 0 mm 0.00 W/m2
21:24 10.6 °C 1.1 °C 1015.8 hPa Calm     52% 0 mm 0.00 W/m2
21:29 10.6 °C 1.1 °C 1015.8 hPa Calm     52% 0 mm 0.00 W/m2
21:34 10.6 °C 0.6 °C 1015.8 hPa Calm     51% 0 mm 0.00 W/m2
21:39 10.6 °C 0.6 °C 1015.8 hPa SW 3.2 km/h   51% 0 mm 0.00 W/m2
21:44 10.6 °C 0.6 °C 1015.8 hPa SW 3.2 km/h 3.2 km/h 51% 0 mm 0.00 W/m2
21:49 10.6 °C 1.1 °C 1015.8 hPa SW 3.2 km/h 3.2 km/h 52% 0 mm 0.00 W/m2
21:53 10.6 °C 1.1 °C 1015.8 hPa Calm   3.2 km/h 53% 0 mm 0.00 W/m2
21:59 10.6 °C 1.1 °C 1015.8 hPa Calm     53% 0 mm 0.00 W/m2
22:04 10 °C 1.1 °C 1015.8 hPa Calm     54% 0 mm 0.00 W/m2
22:09 10 °C 1.1 °C 1015.8 hPa Calm     54% 0 mm 0.00 W/m2
22:19 10 °C 1.7 °C 1015.8 hPa Calm     56% 0 mm 0.00 W/m2
22:22 10 °C 1.7 °C 1015.8 hPa Calm     57% 0 mm 0.00 W/m2
22:29 10 °C 1.7 °C 1015.8 hPa Calm     57% 0 mm 0.00 W/m2
22:34 9.4 °C 1.7 °C 1015.8 hPa SW 3.2 km/h   58% 0 mm 0.00 W/m2
22:39 9.4 °C 1.7 °C 1015.8 hPa Calm   3.2 km/h 59% 0 mm 0.00 W/m2
22:44 9.4 °C 2.2 °C 1015.8 hPa Calm     61% 0 mm 0.00 W/m2
22:49 9.4 °C 2.2 °C 1015.8 hPa Calm     60% 0 mm 0.00 W/m2
22:54 9.4 °C 2.2 °C 1015.8 hPa Calm     61% 0 mm 0.00 W/m2
22:59 9.4 °C 2.2 °C 1015.8 hPa Calm     62% 0 mm 0.00 W/m2
23:04 9.4 °C 2.8 °C 1015.8 hPa Calm     63% 0 mm 0.00 W/m2
23:09 9.4 °C 2.8 °C 1015.8 hPa Calm     63% 0 mm 0.00 W/m2
23:14 9.4 °C 2.8 °C 1015.8 hPa Calm     64% 0 mm 0.00 W/m2
23:19 9.4 °C 2.8 °C 1015.8 hPa Calm     64% 0 mm 0.00 W/m2
23:24 8.9 °C 2.2 °C 1015.8 hPa Calm     63% 0 mm 0.00 W/m2
23:29 8.9 °C 2.8 °C 1015.8 hPa SW 3.2 km/h   64% 0 mm 0.00 W/m2
23:34 8.9 °C 2.8 °C 1015.8 hPa SSW 9.7 km/h 3.2 km/h 65% 0 mm 0.00 W/m2
23:39 8.9 °C 2.8 °C 1015.8 hPa SSW 6.4 km/h 9.7 km/h 65% 0 mm 0.00 W/m2
El Dorado Weather
Compliments of Weather Underground - 4 mb